sensor_id;sensor_type;location;lat;lon;timestamp;P1;durP1;ratioP1;P2;durP2;ratioP2
39032;SDS011;24794;51.982;5.878;2022-12-07T00:00:42;8.25;;;4.95;;
39032;SDS011;24794;51.982;5.878;2022-12-07T00:01:43;8.20;;;4.95;;
39032;SDS011;24794;51.982;5.878;2022-12-07T00:02:44;6.10;;;4.60;;
39032;SDS011;24794;51.982;5.878;2022-12-07T00:03:45;8.15;;;4.80;;
39032;SDS011;24794;51.982;5.878;2022-12-07T00:04:48;7.40;;;4.20;;
39032;SDS011;24794;51.982;5.878;2022-12-07T00:05:49;9.95;;;4.60;;
39032;SDS011;24794;51.982;5.878;2022-12-07T00:06:50;6.85;;;4.75;;
39032;SDS011;24794;51.982;5.878;2022-12-07T00:07:52;9.77;;;5.80;;
39032;SDS011;24794;51.982;5.878;2022-12-07T00:08:53;9.13;;;4.97;;
39032;SDS011;24794;51.982;5.878;2022-12-07T00:09:53;6.97;;;5.13;;
39032;SDS011;24794;51.982;5.878;2022-12-07T00:10:54;7.90;;;4.80;;
39032;SDS011;24794;51.982;5.878;2022-12-07T00:11:55;8.57;;;5.25;;
39032;SDS011;24794;51.982;5.878;2022-12-07T00:12:55;7.78;;;5.00;;
39032;SDS011;24794;51.982;5.878;2022-12-07T00:13:57;8.45;;;5.25;;
39032;SDS011;24794;51.982;5.878;2022-12-07T00:14:59;7.20;;;4.75;;
39032;SDS011;24794;51.982;5.878;2022-12-07T00:16:04;7.90;;;5.05;;
39032;SDS011;24794;51.982;5.878;2022-12-07T00:17:07;7.53;;;5.00;;
39032;SDS011;24794;51.982;5.878;2022-12-07T00:18:07;9.00;;;5.47;;
39032;SDS011;24794;51.982;5.878;2022-12-07T00:19:09;8.07;;;4.93;;
39032;SDS011;24794;51.982;5.878;2022-12-07T00:20:11;7.32;;;4.72;;
39032;SDS011;24794;51.982;5.878;2022-12-07T00:21:12;8.95;;;4.90;;
39032;SDS011;24794;51.982;5.878;2022-12-07T00:22:15;7.65;;;4.50;;
39032;SDS011;24794;51.982;5.878;2022-12-07T00:23:16;9.18;;;4.70;;
39032;SDS011;24794;51.982;5.878;2022-12-07T00:24:17;7.32;;;4.93;;
39032;SDS011;24794;51.982;5.878;2022-12-07T00:25:17;10.02;;;4.90;;
39032;SDS011;24794;51.982;5.878;2022-12-07T00:26:22;9.57;;;5.03;;
39032;SDS011;24794;51.982;5.878;2022-12-07T00:27:24;8.63;;;4.82;;
39032;SDS011;24794;51.982;5.878;2022-12-07T00:28:24;8.43;;;4.63;;
39032;SDS011;24794;51.982;5.878;2022-12-07T00:29:25;7.47;;;4.80;;
39032;SDS011;24794;51.982;5.878;2022-12-07T00:30:26;7.65;;;4.28;;
39032;SDS011;24794;51.982;5.878;2022-12-07T00:31:27;6.63;;;4.65;;
39032;SDS011;24794;51.982;5.878;2022-12-07T00:32:30;11.32;;;4.72;;
39032;SDS011;24794;51.982;5.878;2022-12-07T00:33:32;6.70;;;4.57;;
39032;SDS011;24794;51.982;5.878;2022-12-07T00:34:33;8.20;;;4.25;;
39032;SDS011;24794;51.982;5.878;2022-12-07T00:35:33;5.85;;;4.07;;
39032;SDS011;24794;51.982;5.878;2022-12-07T00:36:34;6.70;;;4.35;;
39032;SDS011;24794;51.982;5.878;2022-12-07T00:37:35;5.88;;;3.97;;
39032;SDS011;24794;51.982;5.878;2022-12-07T00:38:36;6.45;;;4.50;;
39032;SDS011;24794;51.982;5.878;2022-12-07T00:39:37;7.15;;;4.13;;
39032;SDS011;24794;51.982;5.878;2022-12-07T00:40:38;6.25;;;3.80;;
39032;SDS011;24794;51.982;5.878;2022-12-07T00:41:39;6.90;;;4.18;;
39032;SDS011;24794;51.982;5.878;2022-12-07T00:42:39;8.82;;;4.55;;
39032;SDS011;24794;51.982;5.878;2022-12-07T00:43:40;6.60;;;4.13;;
39032;SDS011;24794;51.982;5.878;2022-12-07T00:44:41;6.00;;;4.10;;
39032;SDS011;24794;51.982;5.878;2022-12-07T00:45:42;8.45;;;4.18;;
39032;SDS011;24794;51.982;5.878;2022-12-07T00:46:42;5.13;;;3.80;;
39032;SDS011;24794;51.982;5.878;2022-12-07T00:47:45;7.20;;;3.63;;
39032;SDS011;24794;51.982;5.878;2022-12-07T00:48:45;7.53;;;3.63;;
39032;SDS011;24794;51.982;5.878;2022-12-07T00:49:47;6.18;;;3.80;;
39032;SDS011;24794;51.982;5.878;2022-12-07T00:50:47;5.20;;;3.50;;
39032;SDS011;24794;51.982;5.878;2022-12-07T00:51:49;8.50;;;3.65;;
39032;SDS011;24794;51.982;5.878;2022-12-07T00:52:49;5.18;;;3.28;;
39032;SDS011;24794;51.982;5.878;2022-12-07T00:53:50;6.32;;;3.58;;
39032;SDS011;24794;51.982;5.878;2022-12-07T00:54:51;6.80;;;4.40;;
39032;SDS011;24794;51.982;5.878;2022-12-07T00:55:52;7.65;;;3.92;;
39032;SDS011;24794;51.982;5.878;2022-12-07T00:56:53;6.68;;;4.10;;
39032;SDS011;24794;51.982;5.878;2022-12-07T00:57:53;7.05;;;4.28;;
39032;SDS011;24794;51.982;5.878;2022-12-07T00:58:55;9.40;;;4.25;;
39032;SDS011;24794;51.982;5.878;2022-12-07T00:59:58;7.30;;;4.80;;
39032;SDS011;24794;51.982;5.878;2022-12-07T01:01:00;7.10;;;4.63;;
39032;SDS011;24794;51.982;5.878;2022-12-07T01:02:02;7.93;;;4.60;;
39032;SDS011;24794;51.982;5.878;2022-12-07T01:03:03;9.13;;;4.32;;
39032;SDS011;24794;51.982;5.878;2022-12-07T01:04:05;11.40;;;4.75;;
39032;SDS011;24794;51.982;5.878;2022-12-07T01:05:06;8.68;;;4.70;;
39032;SDS011;24794;51.982;5.878;2022-12-07T01:06:07;7.32;;;4.60;;
39032;SDS011;24794;51.982;5.878;2022-12-07T01:07:07;8.25;;;4.40;;
39032;SDS011;24794;51.982;5.878;2022-12-07T01:08:08;7.43;;;4.50;;
39032;SDS011;24794;51.982;5.878;2022-12-07T01:09:08;8.73;;;4.45;;
39032;SDS011;24794;51.982;5.878;2022-12-07T01:10:09;7.50;;;4.22;;
39032;SDS011;24794;51.982;5.878;2022-12-07T01:11:12;7.63;;;4.20;;
39032;SDS011;24794;51.982;5.878;2022-12-07T01:12:15;9.93;;;4.65;;
39032;SDS011;24794;51.982;5.878;2022-12-07T01:13:15;8.02;;;5.05;;
39032;SDS011;24794;51.982;5.878;2022-12-07T01:14:16;8.70;;;4.50;;
39032;SDS011;24794;51.982;5.878;2022-12-07T01:15:17;7.50;;;4.60;;
39032;SDS011;24794;51.982;5.878;2022-12-07T01:16:18;7.72;;;4.65;;
39032;SDS011;24794;51.982;5.878;2022-12-07T01:17:19;10.55;;;4.18;;
39032;SDS011;24794;51.982;5.878;2022-12-07T01:18:19;7.63;;;4.32;;
39032;SDS011;24794;51.982;5.878;2022-12-07T01:19:20;8.40;;;4.63;;
39032;SDS011;24794;51.982;5.878;2022-12-07T01:20:21;9.13;;;4.53;;
39032;SDS011;24794;51.982;5.878;2022-12-07T01:21:31;10.15;;;4.55;;
39032;SDS011;24794;51.982;5.878;2022-12-07T01:22:38;6.75;;;4.07;;
39032;SDS011;24794;51.982;5.878;2022-12-07T01:23:40;9.48;;;5.00;;
39032;SDS011;24794;51.982;5.878;2022-12-07T01:24:41;10.50;;;4.93;;
39032;SDS011;24794;51.982;5.878;2022-12-07T01:25:42;10.30;;;4.28;;
39032;SDS011;24794;51.982;5.878;2022-12-07T01:26:42;8.43;;;4.32;;
39032;SDS011;24794;51.982;5.878;2022-12-07T01:27:43;11.05;;;4.82;;
39032;SDS011;24794;51.982;5.878;2022-12-07T01:28:43;8.77;;;4.63;;
39032;SDS011;24794;51.982;5.878;2022-12-07T01:29:44;7.75;;;4.03;;
39032;SDS011;24794;51.982;5.878;2022-12-07T01:30:45;6.93;;;3.97;;
39032;SDS011;24794;51.982;5.878;2022-12-07T01:31:57;11.88;;;5.03;;
39032;SDS011;24794;51.982;5.878;2022-12-07T01:32:58;8.45;;;4.30;;
39032;SDS011;24794;51.982;5.878;2022-12-07T01:33:59;9.05;;;4.13;;
39032;SDS011;24794;51.982;5.878;2022-12-07T01:34:59;8.48;;;4.63;;
39032;SDS011;24794;51.982;5.878;2022-12-07T01:36:04;9.35;;;4.05;;
39032;SDS011;24794;51.982;5.878;2022-12-07T01:37:06;7.75;;;4.32;;
39032;SDS011;24794;51.982;5.878;2022-12-07T01:38:07;8.13;;;4.60;;
39032;SDS011;24794;51.982;5.878;2022-12-07T01:39:08;7.72;;;4.07;;
39032;SDS011;24794;51.982;5.878;2022-12-07T01:40:09;10.35;;;5.25;;
39032;SDS011;24794;51.982;5.878;2022-12-07T01:41:11;11.07;;;5.00;;
39032;SDS011;24794;51.982;5.878;2022-12-07T01:42:12;7.18;;;4.53;;
39032;SDS011;24794;51.982;5.878;2022-12-07T01:43:15;13.10;;;4.85;;
39032;SDS011;24794;51.982;5.878;2022-12-07T01:44:22;8.73;;;4.63;;
39032;SDS011;24794;51.982;5.878;2022-12-07T01:45:34;7.25;;;4.38;;
39032;SDS011;24794;51.982;5.878;2022-12-07T01:46:38;7.95;;;4.75;;
39032;SDS011;24794;51.982;5.878;2022-12-07T01:47:40;7.07;;;4.25;;
39032;SDS011;24794;51.982;5.878;2022-12-07T01:48:42;10.75;;;4.72;;
39032;SDS011;24794;51.982;5.878;2022-12-07T01:49:44;9.57;;;4.68;;
39032;SDS011;24794;51.982;5.878;2022-12-07T01:50:48;8.57;;;4.30;;
39032;SDS011;24794;51.982;5.878;2022-12-07T01:51:52;8.95;;;4.47;;
39032;SDS011;24794;51.982;5.878;2022-12-07T01:53:14;7.97;;;4.25;;
39032;SDS011;24794;51.982;5.878;2022-12-07T01:54:16;11.95;;;4.10;;
39032;SDS011;24794;51.982;5.878;2022-12-07T01:55:19;7.63;;;3.78;;
39032;SDS011;24794;51.982;5.878;2022-12-07T01:56:20;8.05;;;4.15;;
39032;SDS011;24794;51.982;5.878;2022-12-07T01:57:25;7.13;;;3.83;;
39032;SDS011;24794;51.982;5.878;2022-12-07T01:58:26;6.95;;;3.53;;
39032;SDS011;24794;51.982;5.878;2022-12-07T01:59:28;7.30;;;4.13;;
39032;SDS011;24794;51.982;5.878;2022-12-07T02:00:29;6.47;;;3.40;;
39032;SDS011;24794;51.982;5.878;2022-12-07T02:01:29;6.38;;;3.20;;
39032;SDS011;24794;51.982;5.878;2022-12-07T02:02:31;7.47;;;3.72;;
39032;SDS011;24794;51.982;5.878;2022-12-07T02:03:39;7.38;;;3.45;;
39032;SDS011;24794;51.982;5.878;2022-12-07T02:04:40;7.50;;;3.42;;
39032;SDS011;24794;51.982;5.878;2022-12-07T02:05:41;6.00;;;3.50;;
39032;SDS011;24794;51.982;5.878;2022-12-07T02:06:43;6.75;;;3.50;;
39032;SDS011;24794;51.982;5.878;2022-12-07T02:07:46;7.80;;;3.78;;
39032;SDS011;24794;51.982;5.878;2022-12-07T02:08:48;8.73;;;4.55;;
39032;SDS011;24794;51.982;5.878;2022-12-07T02:09:49;7.20;;;3.97;;
39032;SDS011;24794;51.982;5.878;2022-12-07T02:10:50;11.02;;;4.55;;
39032;SDS011;24794;51.982;5.878;2022-12-07T02:11:50;7.13;;;4.05;;
39032;SDS011;24794;51.982;5.878;2022-12-07T02:12:56;8.82;;;4.35;;
39032;SDS011;24794;51.982;5.878;2022-12-07T02:14:06;9.18;;;4.55;;
39032;SDS011;24794;51.982;5.878;2022-12-07T02:15:07;10.60;;;4.55;;
39032;SDS011;24794;51.982;5.878;2022-12-07T02:18:25;8.32;;;4.25;;
39032;SDS011;24794;51.982;5.878;2022-12-07T02:25:55;6.65;;;3.78;;
39032;SDS011;24794;51.982;5.878;2022-12-07T02:29:09;7.18;;;3.53;;
39032;SDS011;24794;51.982;5.878;2022-12-07T02:30:23;9.52;;;4.32;;
39032;SDS011;24794;51.982;5.878;2022-12-07T02:31:30;6.95;;;3.40;;
39032;SDS011;24794;51.982;5.878;2022-12-07T02:34:16;8.63;;;4.25;;
39032;SDS011;24794;51.982;5.878;2022-12-07T02:35:20;8.98;;;4.18;;
39032;SDS011;24794;51.982;5.878;2022-12-07T02:36:28;9.38;;;3.83;;
39032;SDS011;24794;51.982;5.878;2022-12-07T02:37:39;9.05;;;4.03;;
39032;SDS011;24794;51.982;5.878;2022-12-07T02:38:46;5.97;;;3.70;;
39032;SDS011;24794;51.982;5.878;2022-12-07T02:40:02;6.30;;;3.45;;
39032;SDS011;24794;51.982;5.878;2022-12-07T02:41:07;6.85;;;3.80;;
39032;SDS011;24794;51.982;5.878;2022-12-07T02:42:23;9.65;;;4.18;;
39032;SDS011;24794;51.982;5.878;2022-12-07T02:43:32;6.57;;;3.90;;
39032;SDS011;24794;51.982;5.878;2022-12-07T02:44:38;8.13;;;3.30;;
39032;SDS011;24794;51.982;5.878;2022-12-07T02:45:40;10.35;;;3.42;;
39032;SDS011;24794;51.982;5.878;2022-12-07T02:46:43;11.25;;;3.58;;
39032;SDS011;24794;51.982;5.878;2022-12-07T02:47:51;9.40;;;3.63;;
39032;SDS011;24794;51.982;5.878;2022-12-07T02:48:53;7.55;;;3.67;;
39032;SDS011;24794;51.982;5.878;2022-12-07T02:49:55;6.82;;;3.10;;
39032;SDS011;24794;51.982;5.878;2022-12-07T02:50:55;8.25;;;3.83;;
39032;SDS011;24794;51.982;5.878;2022-12-07T02:51:56;9.10;;;3.55;;
39032;SDS011;24794;51.982;5.878;2022-12-07T02:52:57;11.50;;;4.30;;
39032;SDS011;24794;51.982;5.878;2022-12-07T02:53:58;8.20;;;3.78;;
39032;SDS011;24794;51.982;5.878;2022-12-07T02:54:59;6.50;;;4.00;;
39032;SDS011;24794;51.982;5.878;2022-12-07T02:56:02;7.25;;;3.40;;
39032;SDS011;24794;51.982;5.878;2022-12-07T03:03:35;9.50;;;3.72;;
39032;SDS011;24794;51.982;5.878;2022-12-07T03:04:45;8.63;;;3.88;;
39032;SDS011;24794;51.982;5.878;2022-12-07T03:07:03;8.90;;;3.38;;
39032;SDS011;24794;51.982;5.878;2022-12-07T03:09:22;8.50;;;3.15;;
39032;SDS011;24794;51.982;5.878;2022-12-07T03:10:28;7.15;;;3.13;;
39032;SDS011;24794;51.982;5.878;2022-12-07T03:11:45;5.32;;;3.00;;
39032;SDS011;24794;51.982;5.878;2022-12-07T03:13:05;9.65;;;3.40;;
39032;SDS011;24794;51.982;5.878;2022-12-07T03:14:21;7.72;;;2.85;;
39032;SDS011;24794;51.982;5.878;2022-12-07T03:15:40;5.78;;;2.88;;
39032;SDS011;24794;51.982;5.878;2022-12-07T03:18:05;5.05;;;2.65;;
39032;SDS011;24794;51.982;5.878;2022-12-07T03:19:09;6.43;;;2.53;;
39032;SDS011;24794;51.982;5.878;2022-12-07T03:20:16;6.97;;;3.10;;
39032;SDS011;24794;51.982;5.878;2022-12-07T03:21:21;6.20;;;2.88;;
39032;SDS011;24794;51.982;5.878;2022-12-07T03:22:43;9.50;;;2.78;;
39032;SDS011;24794;51.982;5.878;2022-12-07T03:23:46;8.23;;;2.85;;
39032;SDS011;24794;51.982;5.878;2022-12-07T03:24:58;8.55;;;2.95;;
39032;SDS011;24794;51.982;5.878;2022-12-07T03:26:01;9.05;;;2.72;;
39032;SDS011;24794;51.982;5.878;2022-12-07T03:27:09;4.93;;;2.75;;
39032;SDS011;24794;51.982;5.878;2022-12-07T03:28:19;7.50;;;3.25;;
39032;SDS011;24794;51.982;5.878;2022-12-07T03:29:24;6.07;;;3.08;;
39032;SDS011;24794;51.982;5.878;2022-12-07T03:30:29;9.73;;;3.20;;
39032;SDS011;24794;51.982;5.878;2022-12-07T03:31:38;5.57;;;2.50;;
39032;SDS011;24794;51.982;5.878;2022-12-07T03:32:48;7.57;;;3.25;;
39032;SDS011;24794;51.982;5.878;2022-12-07T03:34:08;4.72;;;2.53;;
39032;SDS011;24794;51.982;5.878;2022-12-07T03:35:57;8.30;;;2.97;;
39032;SDS011;24794;51.982;5.878;2022-12-07T03:36:45;6.78;;;3.13;;
39032;SDS011;24794;51.982;5.878;2022-12-07T03:37:57;8.32;;;3.15;;
39032;SDS011;24794;51.982;5.878;2022-12-07T03:40:47;8.73;;;3.13;;
39032;SDS011;24794;51.982;5.878;2022-12-07T03:41:53;9.50;;;3.10;;
39032;SDS011;24794;51.982;5.878;2022-12-07T03:42:54;8.77;;;2.97;;
39032;SDS011;24794;51.982;5.878;2022-12-07T03:43:59;11.30;;;3.28;;
39032;SDS011;24794;51.982;5.878;2022-12-07T03:45:01;9.45;;;2.92;;
39032;SDS011;24794;51.982;5.878;2022-12-07T03:49:21;6.43;;;2.83;;
39032;SDS011;24794;51.982;5.878;2022-12-07T03:50:21;5.97;;;2.28;;
39032;SDS011;24794;51.982;5.878;2022-12-07T03:51:37;8.30;;;2.78;;
39032;SDS011;24794;51.982;5.878;2022-12-07T03:52:43;10.35;;;2.90;;
39032;SDS011;24794;51.982;5.878;2022-12-07T03:55:31;5.97;;;2.45;;
39032;SDS011;24794;51.982;5.878;2022-12-07T03:56:35;7.03;;;2.53;;
39032;SDS011;24794;51.982;5.878;2022-12-07T03:57:36;8.00;;;2.67;;
39032;SDS011;24794;51.982;5.878;2022-12-07T03:58:38;7.53;;;2.88;;
39032;SDS011;24794;51.982;5.878;2022-12-07T03:59:40;6.75;;;2.58;;
39032;SDS011;24794;51.982;5.878;2022-12-07T04:00:42;9.30;;;3.00;;
39032;SDS011;24794;51.982;5.878;2022-12-07T04:01:44;7.18;;;2.85;;
39032;SDS011;24794;51.982;5.878;2022-12-07T04:02:51;6.10;;;2.95;;
39032;SDS011;24794;51.982;5.878;2022-12-07T04:03:52;8.52;;;3.13;;
39032;SDS011;24794;51.982;5.878;2022-12-07T04:04:53;5.45;;;2.60;;
39032;SDS011;24794;51.982;5.878;2022-12-07T04:05:55;9.52;;;3.25;;
39032;SDS011;24794;51.982;5.878;2022-12-07T04:06:55;5.03;;;2.65;;
39032;SDS011;24794;51.982;5.878;2022-12-07T04:07:56;8.10;;;3.58;;
39032;SDS011;24794;51.982;5.878;2022-12-07T04:08:57;6.97;;;2.80;;
39032;SDS011;24794;51.982;5.878;2022-12-07T04:09:57;4.88;;;2.53;;
39032;SDS011;24794;51.982;5.878;2022-12-07T04:10:58;5.65;;;2.70;;
39032;SDS011;24794;51.982;5.878;2022-12-07T04:11:59;6.43;;;2.33;;
39032;SDS011;24794;51.982;5.878;2022-12-07T04:12:59;7.05;;;2.80;;
39032;SDS011;24794;51.982;5.878;2022-12-07T04:14:00;7.07;;;2.88;;
39032;SDS011;24794;51.982;5.878;2022-12-07T04:15:18;8.18;;;2.67;;
39032;SDS011;24794;51.982;5.878;2022-12-07T04:16:19;8.50;;;2.85;;
39032;SDS011;24794;51.982;5.878;2022-12-07T04:17:20;7.03;;;2.78;;
39032;SDS011;24794;51.982;5.878;2022-12-07T04:18:20;7.75;;;2.92;;
39032;SDS011;24794;51.982;5.878;2022-12-07T04:19:22;7.25;;;2.90;;
39032;SDS011;24794;51.982;5.878;2022-12-07T04:20:25;4.60;;;2.40;;
39032;SDS011;24794;51.982;5.878;2022-12-07T04:21:26;10.07;;;2.80;;
39032;SDS011;24794;51.982;5.878;2022-12-07T04:22:26;6.78;;;2.50;;
39032;SDS011;24794;51.982;5.878;2022-12-07T04:23:27;8.00;;;2.85;;
39032;SDS011;24794;51.982;5.878;2022-12-07T04:24:27;9.05;;;2.50;;
39032;SDS011;24794;51.982;5.878;2022-12-07T04:25:28;5.82;;;2.65;;
39032;SDS011;24794;51.982;5.878;2022-12-07T04:26:29;7.40;;;2.75;;
39032;SDS011;24794;51.982;5.878;2022-12-07T04:27:29;7.05;;;2.70;;
39032;SDS011;24794;51.982;5.878;2022-12-07T04:28:30;6.65;;;3.03;;
39032;SDS011;24794;51.982;5.878;2022-12-07T04:29:30;6.75;;;2.55;;
39032;SDS011;24794;51.982;5.878;2022-12-07T04:30:31;5.65;;;2.30;;
39032;SDS011;24794;51.982;5.878;2022-12-07T04:31:31;4.20;;;2.10;;
39032;SDS011;24794;51.982;5.878;2022-12-07T04:32:32;7.38;;;2.85;;
39032;SDS011;24794;51.982;5.878;2022-12-07T04:33:32;6.53;;;2.40;;
39032;SDS011;24794;51.982;5.878;2022-12-07T04:34:33;4.53;;;2.20;;
39032;SDS011;24794;51.982;5.878;2022-12-07T04:35:34;3.75;;;2.20;;
39032;SDS011;24794;51.982;5.878;2022-12-07T04:36:34;6.03;;;2.30;;
39032;SDS011;24794;51.982;5.878;2022-12-07T04:37:35;5.07;;;2.17;;
39032;SDS011;24794;51.982;5.878;2022-12-07T04:38:38;5.15;;;2.17;;
39032;SDS011;24794;51.982;5.878;2022-12-07T04:39:39;7.15;;;2.08;;
39032;SDS011;24794;51.982;5.878;2022-12-07T04:40:40;8.63;;;2.80;;
39032;SDS011;24794;51.982;5.878;2022-12-07T04:41:40;7.10;;;2.42;;
39032;SDS011;24794;51.982;5.878;2022-12-07T04:42:41;10.48;;;2.90;;
39032;SDS011;24794;51.982;5.878;2022-12-07T04:43:41;7.25;;;2.58;;
39032;SDS011;24794;51.982;5.878;2022-12-07T04:44:42;6.07;;;2.78;;
39032;SDS011;24794;51.982;5.878;2022-12-07T04:45:46;5.25;;;2.78;;
39032;SDS011;24794;51.982;5.878;2022-12-07T04:46:48;7.50;;;2.42;;
39032;SDS011;24794;51.982;5.878;2022-12-07T04:47:48;6.00;;;2.30;;
39032;SDS011;24794;51.982;5.878;2022-12-07T04:48:49;6.30;;;2.45;;
39032;SDS011;24794;51.982;5.878;2022-12-07T04:49:50;9.35;;;2.65;;
39032;SDS011;24794;51.982;5.878;2022-12-07T04:50:51;8.68;;;2.58;;
39032;SDS011;24794;51.982;5.878;2022-12-07T04:51:51;5.93;;;2.65;;
39032;SDS011;24794;51.982;5.878;2022-12-07T04:52:52;6.72;;;2.80;;
39032;SDS011;24794;51.982;5.878;2022-12-07T04:53:53;7.75;;;2.58;;
39032;SDS011;24794;51.982;5.878;2022-12-07T04:54:54;5.38;;;2.97;;
39032;SDS011;24794;51.982;5.878;2022-12-07T04:55:55;6.53;;;2.83;;
39032;SDS011;24794;51.982;5.878;2022-12-07T04:56:55;7.55;;;2.90;;
39032;SDS011;24794;51.982;5.878;2022-12-07T04:57:56;6.97;;;2.53;;
39032;SDS011;24794;51.982;5.878;2022-12-07T04:58:56;6.25;;;2.10;;
39032;SDS011;24794;51.982;5.878;2022-12-07T04:59:57;6.38;;;2.05;;
39032;SDS011;24794;51.982;5.878;2022-12-07T05:00:57;5.50;;;2.03;;
39032;SDS011;24794;51.982;5.878;2022-12-07T05:01:58;7.03;;;2.25;;
39032;SDS011;24794;51.982;5.878;2022-12-07T05:02:59;8.68;;;2.25;;
39032;SDS011;24794;51.982;5.878;2022-12-07T05:03:59;3.17;;;1.73;;
39032;SDS011;24794;51.982;5.878;2022-12-07T05:05:00;3.92;;;1.67;;
39032;SDS011;24794;51.982;5.878;2022-12-07T05:06:00;5.43;;;1.98;;
39032;SDS011;24794;51.982;5.878;2022-12-07T05:07:01;7.80;;;2.10;;
39032;SDS011;24794;51.982;5.878;2022-12-07T05:08:01;5.20;;;1.85;;
39032;SDS011;24794;51.982;5.878;2022-12-07T05:09:02;4.93;;;2.00;;
39032;SDS011;24794;51.982;5.878;2022-12-07T05:10:04;8.07;;;2.05;;
39032;SDS011;24794;51.982;5.878;2022-12-07T05:11:06;6.32;;;1.90;;
39032;SDS011;24794;51.982;5.878;2022-12-07T05:12:07;6.68;;;1.70;;
39032;SDS011;24794;51.982;5.878;2022-12-07T05:13:08;5.45;;;1.83;;
39032;SDS011;24794;51.982;5.878;2022-12-07T05:15:09;5.97;;;1.98;;
39032;SDS011;24794;51.982;5.878;2022-12-07T05:16:10;4.78;;;1.80;;
39032;SDS011;24794;51.982;5.878;2022-12-07T05:17:10;9.43;;;2.00;;
39032;SDS011;24794;51.982;5.878;2022-12-07T05:18:11;4.78;;;1.80;;
39032;SDS011;24794;51.982;5.878;2022-12-07T05:19:12;7.55;;;2.05;;
39032;SDS011;24794;51.982;5.878;2022-12-07T05:20:13;5.65;;;1.70;;
39032;SDS011;24794;51.982;5.878;2022-12-07T05:21:13;4.90;;;1.70;;
39032;SDS011;24794;51.982;5.878;2022-12-07T05:22:14;5.43;;;1.50;;
39032;SDS011;24794;51.982;5.878;2022-12-07T05:23:15;3.15;;;1.50;;
39032;SDS011;24794;51.982;5.878;2022-12-07T05:24:16;4.82;;;1.52;;
39032;SDS011;24794;51.982;5.878;2022-12-07T05:25:17;2.92;;;1.48;;
39032;SDS011;24794;51.982;5.878;2022-12-07T05:26:18;3.28;;;2.03;;
39032;SDS011;24794;51.982;5.878;2022-12-07T05:27:18;6.60;;;1.83;;
39032;SDS011;24794;51.982;5.878;2022-12-07T05:28:19;6.05;;;1.80;;
39032;SDS011;24794;51.982;5.878;2022-12-07T05:29:20;5.13;;;2.22;;
39032;SDS011;24794;51.982;5.878;2022-12-07T05:30:20;7.32;;;2.00;;
39032;SDS011;24794;51.982;5.878;2022-12-07T05:31:21;5.53;;;1.90;;
39032;SDS011;24794;51.982;5.878;2022-12-07T05:32:23;3.60;;;1.52;;
39032;SDS011;24794;51.982;5.878;2022-12-07T05:33:23;5.88;;;1.58;;
39032;SDS011;24794;51.982;5.878;2022-12-07T05:34:24;7.05;;;1.70;;
39032;SDS011;24794;51.982;5.878;2022-12-07T05:35:24;4.95;;;1.70;;
39032;SDS011;24794;51.982;5.878;2022-12-07T05:36:25;5.97;;;1.60;;
39032;SDS011;24794;51.982;5.878;2022-12-07T05:37:28;5.63;;;1.50;;
39032;SDS011;24794;51.982;5.878;2022-12-07T05:38:29;7.30;;;1.70;;
39032;SDS011;24794;51.982;5.878;2022-12-07T05:39:29;4.93;;;1.48;;
39032;SDS011;24794;51.982;5.878;2022-12-07T05:40:30;8.48;;;1.85;;
39032;SDS011;24794;51.982;5.878;2022-12-07T05:41:30;7.97;;;2.03;;
39032;SDS011;24794;51.982;5.878;2022-12-07T05:42:50;5.63;;;1.77;;
39032;SDS011;24794;51.982;5.878;2022-12-07T05:43:50;7.88;;;1.55;;
39032;SDS011;24794;51.982;5.878;2022-12-07T05:44:51;6.72;;;1.95;;
39032;SDS011;24794;51.982;5.878;2022-12-07T05:45:51;5.18;;;1.70;;
39032;SDS011;24794;51.982;5.878;2022-12-07T05:46:52;5.72;;;1.42;;
39032;SDS011;24794;51.982;5.878;2022-12-07T05:47:52;6.85;;;2.10;;
39032;SDS011;24794;51.982;5.878;2022-12-07T05:48:53;7.95;;;2.00;;
39032;SDS011;24794;51.982;5.878;2022-12-07T05:49:54;4.93;;;1.70;;
39032;SDS011;24794;51.982;5.878;2022-12-07T05:50:54;6.18;;;1.70;;
39032;SDS011;24794;51.982;5.878;2022-12-07T05:51:55;5.10;;;1.40;;
39032;SDS011;24794;51.982;5.878;2022-12-07T05:52:55;8.68;;;1.70;;
39032;SDS011;24794;51.982;5.878;2022-12-07T05:53:56;7.00;;;2.00;;
39032;SDS011;24794;51.982;5.878;2022-12-07T05:54:57;3.90;;;1.48;;
39032;SDS011;24794;51.982;5.878;2022-12-07T05:55:57;6.28;;;2.10;;
39032;SDS011;24794;51.982;5.878;2022-12-07T05:56:58;5.65;;;1.92;;
39032;SDS011;24794;51.982;5.878;2022-12-07T05:57:58;8.10;;;1.70;;
39032;SDS011;24794;51.982;5.878;2022-12-07T05:59:17;5.88;;;1.80;;
39032;SDS011;24794;51.982;5.878;2022-12-07T06:00:24;3.80;;;1.70;;
39032;SDS011;24794;51.982;5.878;2022-12-07T06:01:24;3.47;;;1.70;;
39032;SDS011;24794;51.982;5.878;2022-12-07T06:02:25;4.75;;;1.30;;
39032;SDS011;24794;51.982;5.878;2022-12-07T06:03:26;3.45;;;1.30;;
39032;SDS011;24794;51.982;5.878;2022-12-07T06:04:28;2.58;;;1.17;;
39032;SDS011;24794;51.982;5.878;2022-12-07T06:05:30;6.45;;;1.48;;
39032;SDS011;24794;51.982;5.878;2022-12-07T06:06:31;4.70;;;1.20;;
39032;SDS011;24794;51.982;5.878;2022-12-07T06:07:32;4.35;;;1.45;;
39032;SDS011;24794;51.982;5.878;2022-12-07T06:08:33;3.83;;;1.55;;
39032;SDS011;24794;51.982;5.878;2022-12-07T06:09:33;3.85;;;1.30;;
39032;SDS011;24794;51.982;5.878;2022-12-07T06:10:35;3.47;;;1.25;;
39032;SDS011;24794;51.982;5.878;2022-12-07T06:11:35;4.68;;;1.15;;
39032;SDS011;24794;51.982;5.878;2022-12-07T06:12:54;4.05;;;1.60;;
39032;SDS011;24794;51.982;5.878;2022-12-07T06:13:55;6.53;;;3.03;;
39032;SDS011;24794;51.982;5.878;2022-12-07T06:14:55;9.68;;;3.47;;
39032;SDS011;24794;51.982;5.878;2022-12-07T06:15:57;8.90;;;4.10;;
39032;SDS011;24794;51.982;5.878;2022-12-07T06:16:58;8.30;;;2.78;;
39032;SDS011;24794;51.982;5.878;2022-12-07T06:17:58;4.20;;;2.25;;
39032;SDS011;24794;51.982;5.878;2022-12-07T06:18:59;11.13;;;2.42;;
39032;SDS011;24794;51.982;5.878;2022-12-07T06:20:00;4.22;;;2.10;;
39032;SDS011;24794;51.982;5.878;2022-12-07T06:21:00;4.60;;;1.95;;
39032;SDS011;24794;51.982;5.878;2022-12-07T06:22:01;6.10;;;1.98;;
39032;SDS011;24794;51.982;5.878;2022-12-07T06:23:04;3.25;;;1.40;;
39032;SDS011;24794;51.982;5.878;2022-12-07T06:24:05;2.88;;;1.58;;
39032;SDS011;24794;51.982;5.878;2022-12-07T06:25:06;6.15;;;1.40;;
39032;SDS011;24794;51.982;5.878;2022-12-07T06:26:07;3.80;;;1.30;;
39032;SDS011;24794;51.982;5.878;2022-12-07T06:27:08;3.97;;;1.17;;
39032;SDS011;24794;51.982;5.878;2022-12-07T06:28:09;3.42;;;1.27;;
39032;SDS011;24794;51.982;5.878;2022-12-07T06:29:10;4.38;;;1.40;;
39032;SDS011;24794;51.982;5.878;2022-12-07T06:30:11;3.60;;;1.27;;
39032;SDS011;24794;51.982;5.878;2022-12-07T06:31:12;3.15;;;1.23;;
39032;SDS011;24794;51.982;5.878;2022-12-07T06:32:13;4.35;;;1.27;;
39032;SDS011;24794;51.982;5.878;2022-12-07T06:33:14;3.53;;;1.27;;
39032;SDS011;24794;51.982;5.878;2022-12-07T06:34:16;3.92;;;1.13;;
39032;SDS011;24794;51.982;5.878;2022-12-07T06:35:18;3.95;;;1.27;;
39032;SDS011;24794;51.982;5.878;2022-12-07T06:36:19;4.50;;;1.48;;
39032;SDS011;24794;51.982;5.878;2022-12-07T06:37:19;4.45;;;1.58;;
39032;SDS011;24794;51.982;5.878;2022-12-07T06:38:20;4.05;;;1.38;;
39032;SDS011;24794;51.982;5.878;2022-12-07T06:39:22;3.10;;;1.30;;
39032;SDS011;24794;51.982;5.878;2022-12-07T06:40:24;6.18;;;1.40;;
39032;SDS011;24794;51.982;5.878;2022-12-07T06:41:24;3.80;;;1.40;;
39032;SDS011;24794;51.982;5.878;2022-12-07T06:42:25;2.83;;;1.45;;
39032;SDS011;24794;51.982;5.878;2022-12-07T06:43:26;3.08;;;1.40;;
39032;SDS011;24794;51.982;5.878;2022-12-07T06:44:27;5.05;;;1.50;;
39032;SDS011;24794;51.982;5.878;2022-12-07T06:45:27;2.63;;;1.20;;
39032;SDS011;24794;51.982;5.878;2022-12-07T06:46:28;6.07;;;1.92;;
39032;SDS011;24794;51.982;5.878;2022-12-07T06:47:29;4.88;;;1.95;;
39032;SDS011;24794;51.982;5.878;2022-12-07T06:48:29;6.38;;;2.30;;